Lakeside, Michigan
Current Conditions -  °F | °C
As of 9:35 AM on Friday 28 Nov 2014 (Local Time) from KMGC Reporting Station
Overcast Overcast  
Wind Chill: 15°   Ceiling: 3900
Heat Index: 23°   Visibility: 10mi
Dew Point: 12°   Wind: 7mph
Humidity: 63%   Direction: 190°S
Pressure: 30.3"   Gusts: NA
Location:  41.84°N, 86.66°W
Report Text: KMGC 281435Z AUTO 19006KT 10SM BKN039 OVC046 M05/M11 A3030 RMK AO2
Loading
Personal Weather Stations






























Interactive Weather Map New forecast layout! Learn more

10-Day Weather Forecast

Advertisements
Track Severe Weather on mobile